sensor_id;sensor_type;location;lat;lon;timestamp;P1;durP1;ratioP1;P2;durP2;ratioP2
17570;SDS011;8903;52.220;20.978;2023-06-10T00:01:39;12.83;;;11.50;;
17570;SDS011;8903;52.220;20.978;2023-06-10T00:04:06;15.27;;;10.83;;
17570;SDS011;8903;52.220;20.978;2023-06-10T00:06:33;12.73;;;11.70;;
17570;SDS011;8903;52.220;20.978;2023-06-10T00:09:02;13.80;;;12.20;;
17570;SDS011;8903;52.220;20.978;2023-06-10T00:11:31;13.77;;;12.30;;
17570;SDS011;8903;52.220;20.978;2023-06-10T00:13:58;12.33;;;11.23;;
17570;SDS011;8903;52.220;20.978;2023-06-10T00:16:27;11.73;;;10.53;;
17570;SDS011;8903;52.220;20.978;2023-06-10T00:18:54;11.90;;;9.90;;
17570;SDS011;8903;52.220;20.978;2023-06-10T00:21:26;16.23;;;10.90;;
17570;SDS011;8903;52.220;20.978;2023-06-10T00:23:53;10.90;;;8.67;;
17570;SDS011;8903;52.220;20.978;2023-06-10T00:26:20;9.97;;;9.07;;
17570;SDS011;8903;52.220;20.978;2023-06-10T00:28:48;10.10;;;8.53;;
17570;SDS011;8903;52.220;20.978;2023-06-10T00:31:14;15.30;;;7.70;;
17570;SDS011;8903;52.220;20.978;2023-06-10T00:33:43;8.30;;;7.50;;
17570;SDS011;8903;52.220;20.978;2023-06-10T00:36:10;9.37;;;7.03;;
17570;SDS011;8903;52.220;20.978;2023-06-10T00:38:37;8.20;;;7.40;;
17570;SDS011;8903;52.220;20.978;2023-06-10T00:41:05;9.00;;;6.63;;
17570;SDS011;8903;52.220;20.978;2023-06-10T00:43:33;7.57;;;6.87;;
17570;SDS011;8903;52.220;20.978;2023-06-10T00:46:00;7.43;;;6.43;;
17570;SDS011;8903;52.220;20.978;2023-06-10T00:48:28;6.33;;;5.73;;
17570;SDS011;8903;52.220;20.978;2023-06-10T00:50:57;6.60;;;6.00;;
17570;SDS011;8903;52.220;20.978;2023-06-10T00:53:24;8.97;;;6.47;;
17570;SDS011;8903;52.220;20.978;2023-06-10T00:55:52;6.97;;;6.30;;
17570;SDS011;8903;52.220;20.978;2023-06-10T00:58:19;6.63;;;6.03;;
17570;SDS011;8903;52.220;20.978;2023-06-10T01:00:48;7.30;;;5.63;;
17570;SDS011;8903;52.220;20.978;2023-06-10T01:03:16;8.00;;;5.67;;
17570;SDS011;8903;52.220;20.978;2023-06-10T01:05:43;8.07;;;6.50;;
17570;SDS011;8903;52.220;20.978;2023-06-10T01:08:19;9.87;;;6.60;;
17570;SDS011;8903;52.220;20.978;2023-06-10T01:10:57;13.27;;;6.20;;
17570;SDS011;8903;52.220;20.978;2023-06-10T01:13:26;10.53;;;6.97;;
17570;SDS011;8903;52.220;20.978;2023-06-10T01:15:57;7.57;;;6.23;;
17570;SDS011;8903;52.220;20.978;2023-06-10T01:18:29;7.03;;;5.73;;
17570;SDS011;8903;52.220;20.978;2023-06-10T01:20:57;10.47;;;6.10;;
17570;SDS011;8903;52.220;20.978;2023-06-10T01:23:25;6.67;;;5.13;;
17570;SDS011;8903;52.220;20.978;2023-06-10T01:25:53;7.40;;;5.93;;
17570;SDS011;8903;52.220;20.978;2023-06-10T01:28:27;13.20;;;5.00;;
17570;SDS011;8903;52.220;20.978;2023-06-10T01:31:02;7.30;;;5.50;;
17570;SDS011;8903;52.220;20.978;2023-06-10T01:33:37;8.10;;;5.07;;
17570;SDS011;8903;52.220;20.978;2023-06-10T01:36:07;8.30;;;5.33;;
17570;SDS011;8903;52.220;20.978;2023-06-10T01:38:39;5.33;;;4.83;;
17570;SDS011;8903;52.220;20.978;2023-06-10T01:41:09;5.87;;;5.00;;
17570;SDS011;8903;52.220;20.978;2023-06-10T01:43:37;7.17;;;5.13;;
17570;SDS011;8903;52.220;20.978;2023-06-10T01:46:06;8.73;;;5.57;;
17570;SDS011;8903;52.220;20.978;2023-06-10T01:48:33;8.00;;;4.70;;
17570;SDS011;8903;52.220;20.978;2023-06-10T01:51:00;7.93;;;5.20;;
17570;SDS011;8903;52.220;20.978;2023-06-10T01:53:27;8.47;;;5.50;;
17570;SDS011;8903;52.220;20.978;2023-06-10T01:55:56;10.60;;;5.47;;
17570;SDS011;8903;52.220;20.978;2023-06-10T01:58:23;6.57;;;5.70;;
17570;SDS011;8903;52.220;20.978;2023-06-10T02:00:50;7.40;;;5.00;;
17570;SDS011;8903;52.220;20.978;2023-06-10T02:03:17;9.03;;;5.43;;
17570;SDS011;8903;52.220;20.978;2023-06-10T02:05:44;8.30;;;5.20;;
17570;SDS011;8903;52.220;20.978;2023-06-10T02:08:11;6.40;;;5.60;;
17570;SDS011;8903;52.220;20.978;2023-06-10T02:10:38;9.80;;;5.47;;
17570;SDS011;8903;52.220;20.978;2023-06-10T02:13:07;6.40;;;4.90;;
17570;SDS011;8903;52.220;20.978;2023-06-10T02:15:34;10.63;;;5.80;;
17570;SDS011;8903;52.220;20.978;2023-06-10T02:18:01;7.83;;;5.00;;
17570;SDS011;8903;52.220;20.978;2023-06-10T02:20:28;6.10;;;5.50;;
17570;SDS011;8903;52.220;20.978;2023-06-10T02:22:55;6.30;;;5.10;;
17570;SDS011;8903;52.220;20.978;2023-06-10T02:25:22;10.97;;;5.60;;
17570;SDS011;8903;52.220;20.978;2023-06-10T02:27:49;9.00;;;5.20;;
17570;SDS011;8903;52.220;20.978;2023-06-10T02:30:18;8.30;;;5.27;;
17570;SDS011;8903;52.220;20.978;2023-06-10T02:32:45;7.80;;;5.30;;
17570;SDS011;8903;52.220;20.978;2023-06-10T02:35:14;9.53;;;5.23;;
17570;SDS011;8903;52.220;20.978;2023-06-10T02:37:42;13.07;;;5.53;;
17570;SDS011;8903;52.220;20.978;2023-06-10T02:40:10;7.63;;;5.20;;
17570;SDS011;8903;52.220;20.978;2023-06-10T02:42:38;12.37;;;5.40;;
17570;SDS011;8903;52.220;20.978;2023-06-10T02:45:06;6.37;;;5.00;;
17570;SDS011;8903;52.220;20.978;2023-06-10T02:47:40;6.33;;;4.77;;
17570;SDS011;8903;52.220;20.978;2023-06-10T02:50:09;5.77;;;5.20;;
17570;SDS011;8903;52.220;20.978;2023-06-10T02:52:56;9.70;;;5.17;;
17570;SDS011;8903;52.220;20.978;2023-06-10T02:55:24;10.00;;;5.70;;
17570;SDS011;8903;52.220;20.978;2023-06-10T02:57:54;7.43;;;4.80;;
17570;SDS011;8903;52.220;20.978;2023-06-10T03:00:22;10.67;;;4.73;;
17570;SDS011;8903;52.220;20.978;2023-06-10T03:02:52;8.83;;;4.73;;
17570;SDS011;8903;52.220;20.978;2023-06-10T03:05:27;7.90;;;5.10;;
17570;SDS011;8903;52.220;20.978;2023-06-10T03:07:57;6.50;;;4.70;;
17570;SDS011;8903;52.220;20.978;2023-06-10T03:10:24;8.57;;;5.80;;
17570;SDS011;8903;52.220;20.978;2023-06-10T03:12:52;8.90;;;6.30;;
17570;SDS011;8903;52.220;20.978;2023-06-10T03:15:20;5.30;;;4.67;;
17570;SDS011;8903;52.220;20.978;2023-06-10T03:17:49;7.20;;;5.23;;
17570;SDS011;8903;52.220;20.978;2023-06-10T03:20:18;12.83;;;4.73;;
17570;SDS011;8903;52.220;20.978;2023-06-10T03:22:47;7.97;;;5.50;;
17570;SDS011;8903;52.220;20.978;2023-06-10T03:25:14;8.13;;;5.13;;
17570;SDS011;8903;52.220;20.978;2023-06-10T03:27:45;13.83;;;5.67;;
17570;SDS011;8903;52.220;20.978;2023-06-10T03:30:13;9.10;;;5.33;;
17570;SDS011;8903;52.220;20.978;2023-06-10T03:32:41;15.73;;;8.63;;
17570;SDS011;8903;52.220;20.978;2023-06-10T03:35:11;10.27;;;4.13;;
17570;SDS011;8903;52.220;20.978;2023-06-10T03:37:40;7.57;;;6.10;;
17570;SDS011;8903;52.220;20.978;2023-06-10T03:40:08;9.23;;;5.13;;
17570;SDS011;8903;52.220;20.978;2023-06-10T03:42:37;8.20;;;5.00;;
17570;SDS011;8903;52.220;20.978;2023-06-10T03:45:05;8.37;;;4.70;;
17570;SDS011;8903;52.220;20.978;2023-06-10T03:47:34;7.00;;;4.67;;
17570;SDS011;8903;52.220;20.978;2023-06-10T03:50:05;8.53;;;5.20;;
17570;SDS011;8903;52.220;20.978;2023-06-10T03:52:35;4.73;;;4.30;;
17570;SDS011;8903;52.220;20.978;2023-06-10T03:55:02;10.17;;;4.90;;
17570;SDS011;8903;52.220;20.978;2023-06-10T03:57:30;6.87;;;4.47;;
17570;SDS011;8903;52.220;20.978;2023-06-10T03:59:57;7.63;;;4.53;;
17570;SDS011;8903;52.220;20.978;2023-06-10T04:02:25;7.90;;;4.60;;
17570;SDS011;8903;52.220;20.978;2023-06-10T04:04:52;9.93;;;5.37;;
17570;SDS011;8903;52.220;20.978;2023-06-10T04:07:19;7.00;;;5.87;;
17570;SDS011;8903;52.220;20.978;2023-06-10T04:09:48;10.33;;;4.73;;
17570;SDS011;8903;52.220;20.978;2023-06-10T04:12:16;7.23;;;4.87;;
17570;SDS011;8903;52.220;20.978;2023-06-10T04:14:43;8.20;;;5.10;;
17570;SDS011;8903;52.220;20.978;2023-06-10T04:17:11;5.93;;;4.77;;
17570;SDS011;8903;52.220;20.978;2023-06-10T04:19:38;7.07;;;5.27;;
17570;SDS011;8903;52.220;20.978;2023-06-10T04:22:06;6.67;;;4.20;;
17570;SDS011;8903;52.220;20.978;2023-06-10T04:24:33;5.57;;;5.07;;
17570;SDS011;8903;52.220;20.978;2023-06-10T04:27:02;8.20;;;5.00;;
17570;SDS011;8903;52.220;20.978;2023-06-10T04:29:31;6.60;;;5.13;;
17570;SDS011;8903;52.220;20.978;2023-06-10T04:31:58;5.80;;;4.23;;
17570;SDS011;8903;52.220;20.978;2023-06-10T04:34:27;6.47;;;4.30;;
17570;SDS011;8903;52.220;20.978;2023-06-10T04:36:54;6.23;;;4.90;;
17570;SDS011;8903;52.220;20.978;2023-06-10T04:39:21;10.40;;;5.10;;
17570;SDS011;8903;52.220;20.978;2023-06-10T04:41:49;9.20;;;4.70;;
17570;SDS011;8903;52.220;20.978;2023-06-10T04:44:19;9.97;;;5.27;;
17570;SDS011;8903;52.220;20.978;2023-06-10T04:46:46;7.87;;;4.60;;
17570;SDS011;8903;52.220;20.978;2023-06-10T04:49:13;6.67;;;4.60;;
17570;SDS011;8903;52.220;20.978;2023-06-10T04:51:41;5.23;;;4.73;;
17570;SDS011;8903;52.220;20.978;2023-06-10T04:54:08;6.60;;;4.80;;
17570;SDS011;8903;52.220;20.978;2023-06-10T04:56:35;6.77;;;5.57;;
17570;SDS011;8903;52.220;20.978;2023-06-10T04:59:02;12.20;;;4.93;;
17570;SDS011;8903;52.220;20.978;2023-06-10T05:01:30;7.93;;;4.30;;
17570;SDS011;8903;52.220;20.978;2023-06-10T05:03:57;8.60;;;5.20;;
17570;SDS011;8903;52.220;20.978;2023-06-10T05:06:24;5.43;;;4.93;;
17570;SDS011;8903;52.220;20.978;2023-06-10T05:08:51;6.17;;;5.30;;
17570;SDS011;8903;52.220;20.978;2023-06-10T05:11:18;7.23;;;4.50;;
17570;SDS011;8903;52.220;20.978;2023-06-10T05:13:45;8.27;;;4.67;;
17570;SDS011;8903;52.220;20.978;2023-06-10T05:16:12;8.63;;;5.20;;
17570;SDS011;8903;52.220;20.978;2023-06-10T05:18:41;9.33;;;5.00;;
17570;SDS011;8903;52.220;20.978;2023-06-10T05:21:08;11.07;;;4.30;;
17570;SDS011;8903;52.220;20.978;2023-06-10T05:23:36;8.23;;;4.73;;
17570;SDS011;8903;52.220;20.978;2023-06-10T05:26:03;6.97;;;5.00;;
17570;SDS011;8903;52.220;20.978;2023-06-10T05:28:30;6.33;;;5.20;;
17570;SDS011;8903;52.220;20.978;2023-06-10T05:30:57;10.83;;;4.70;;
17570;SDS011;8903;52.220;20.978;2023-06-10T05:33:24;5.77;;;4.87;;
17570;SDS011;8903;52.220;20.978;2023-06-10T05:35:53;7.33;;;4.70;;
17570;SDS011;8903;52.220;20.978;2023-06-10T05:38:19;6.47;;;4.57;;
17570;SDS011;8903;52.220;20.978;2023-06-10T05:40:46;6.60;;;4.40;;
17570;SDS011;8903;52.220;20.978;2023-06-10T05:43:13;10.23;;;5.10;;
17570;SDS011;8903;52.220;20.978;2023-06-10T05:45:41;6.90;;;5.40;;
17570;SDS011;8903;52.220;20.978;2023-06-10T05:48:08;9.80;;;4.60;;
17570;SDS011;8903;52.220;20.978;2023-06-10T05:50:36;6.80;;;4.80;;
17570;SDS011;8903;52.220;20.978;2023-06-10T05:53:06;8.07;;;5.43;;
17570;SDS011;8903;52.220;20.978;2023-06-10T05:55:39;9.60;;;5.40;;
17570;SDS011;8903;52.220;20.978;2023-06-10T05:58:06;6.70;;;5.50;;
17570;SDS011;8903;52.220;20.978;2023-06-10T06:00:34;9.20;;;4.97;;
17570;SDS011;8903;52.220;20.978;2023-06-10T06:03:00;5.83;;;4.80;;
17570;SDS011;8903;52.220;20.978;2023-06-10T06:05:27;4.97;;;4.53;;
17570;SDS011;8903;52.220;20.978;2023-06-10T06:07:59;6.77;;;4.90;;
17570;SDS011;8903;52.220;20.978;2023-06-10T06:10:28;5.03;;;4.53;;
17570;SDS011;8903;52.220;20.978;2023-06-10T06:12:55;6.03;;;5.40;;
17570;SDS011;8903;52.220;20.978;2023-06-10T06:15:22;8.77;;;5.60;;
17570;SDS011;8903;52.220;20.978;2023-06-10T06:17:49;8.90;;;5.13;;
17570;SDS011;8903;52.220;20.978;2023-06-10T06:20:17;7.50;;;5.03;;
17570;SDS011;8903;52.220;20.978;2023-06-10T06:22:44;6.80;;;5.23;;
17570;SDS011;8903;52.220;20.978;2023-06-10T06:25:11;7.60;;;5.20;;
17570;SDS011;8903;52.220;20.978;2023-06-10T06:27:40;6.03;;;4.90;;
17570;SDS011;8903;52.220;20.978;2023-06-10T06:30:07;7.80;;;5.70;;
17570;SDS011;8903;52.220;20.978;2023-06-10T06:32:35;5.50;;;4.80;;
17570;SDS011;8903;52.220;20.978;2023-06-10T06:35:02;9.83;;;5.40;;
17570;SDS011;8903;52.220;20.978;2023-06-10T06:37:31;6.17;;;4.60;;
17570;SDS011;8903;52.220;20.978;2023-06-10T06:40:13;9.77;;;5.40;;
17570;SDS011;8903;52.220;20.978;2023-06-10T06:42:42;7.90;;;4.80;;
17570;SDS011;8903;52.220;20.978;2023-06-10T06:45:29;7.80;;;5.70;;
17570;SDS011;8903;52.220;20.978;2023-06-10T06:47:56;8.50;;;5.00;;
17570;SDS011;8903;52.220;20.978;2023-06-10T06:50:23;6.40;;;5.43;;
17570;SDS011;8903;52.220;20.978;2023-06-10T06:52:50;6.93;;;5.20;;
17570;SDS011;8903;52.220;20.978;2023-06-10T06:55:17;5.03;;;4.60;;
17570;SDS011;8903;52.220;20.978;2023-06-10T06:57:45;6.53;;;5.77;;
17570;SDS011;8903;52.220;20.978;2023-06-10T07:00:12;5.63;;;5.10;;
17570;SDS011;8903;52.220;20.978;2023-06-10T07:02:40;6.67;;;4.90;;
17570;SDS011;8903;52.220;20.978;2023-06-10T07:05:07;7.60;;;5.27;;
17570;SDS011;8903;52.220;20.978;2023-06-10T07:07:34;6.83;;;5.70;;
17570;SDS011;8903;52.220;20.978;2023-06-10T07:10:01;7.90;;;5.20;;
17570;SDS011;8903;52.220;20.978;2023-06-10T07:12:28;7.70;;;5.50;;
17570;SDS011;8903;52.220;20.978;2023-06-10T07:14:58;9.20;;;5.83;;
17570;SDS011;8903;52.220;20.978;2023-06-10T07:17:25;8.97;;;6.70;;
17570;SDS011;8903;52.220;20.978;2023-06-10T07:19:53;9.37;;;5.73;;
17570;SDS011;8903;52.220;20.978;2023-06-10T07:22:22;6.97;;;5.90;;
17570;SDS011;8903;52.220;20.978;2023-06-10T07:24:49;7.33;;;4.70;;
17570;SDS011;8903;52.220;20.978;2023-06-10T07:27:17;9.80;;;5.30;;
17570;SDS011;8903;52.220;20.978;2023-06-10T07:29:44;6.30;;;5.00;;
17570;SDS011;8903;52.220;20.978;2023-06-10T07:32:12;9.83;;;6.40;;
17570;SDS011;8903;52.220;20.978;2023-06-10T07:34:39;8.23;;;5.93;;
17570;SDS011;8903;52.220;20.978;2023-06-10T07:37:06;8.30;;;5.30;;
17570;SDS011;8903;52.220;20.978;2023-06-10T07:39:33;8.70;;;5.70;;
17570;SDS011;8903;52.220;20.978;2023-06-10T07:42:01;6.50;;;5.00;;
17570;SDS011;8903;52.220;20.978;2023-06-10T07:44:28;9.10;;;5.73;;
17570;SDS011;8903;52.220;20.978;2023-06-10T07:46:55;8.33;;;5.50;;
17570;SDS011;8903;52.220;20.978;2023-06-10T07:49:24;5.07;;;4.57;;
17570;SDS011;8903;52.220;20.978;2023-06-10T07:51:53;6.70;;;6.00;;
17570;SDS011;8903;52.220;20.978;2023-06-10T07:54:20;9.80;;;5.70;;
17570;SDS011;8903;52.220;20.978;2023-06-10T07:56:47;13.63;;;5.90;;
17570;SDS011;8903;52.220;20.978;2023-06-10T07:59:15;8.30;;;5.27;;
17570;SDS011;8903;52.220;20.978;2023-06-10T08:01:42;9.40;;;5.37;;
17570;SDS011;8903;52.220;20.978;2023-06-10T08:04:09;7.80;;;5.97;;
17570;SDS011;8903;52.220;20.978;2023-06-10T08:06:38;6.37;;;5.73;;
17570;SDS011;8903;52.220;20.978;2023-06-10T08:09:06;9.10;;;6.37;;
17570;SDS011;8903;52.220;20.978;2023-06-10T08:11:33;6.43;;;5.50;;
17570;SDS011;8903;52.220;20.978;2023-06-10T08:13:59;5.27;;;4.87;;
17570;SDS011;8903;52.220;20.978;2023-06-10T08:16:27;7.27;;;4.80;;
17570;SDS011;8903;52.220;20.978;2023-06-10T08:18:54;7.93;;;5.07;;
17570;SDS011;8903;52.220;20.978;2023-06-10T08:21:21;10.57;;;6.30;;
17570;SDS011;8903;52.220;20.978;2023-06-10T08:23:49;10.37;;;6.43;;
17570;SDS011;8903;52.220;20.978;2023-06-10T08:26:19;7.80;;;5.70;;
17570;SDS011;8903;52.220;20.978;2023-06-10T08:28:46;6.20;;;5.60;;
17570;SDS011;8903;52.220;20.978;2023-06-10T08:31:13;6.90;;;5.40;;
17570;SDS011;8903;52.220;20.978;2023-06-10T08:33:41;8.23;;;5.30;;
17570;SDS011;8903;52.220;20.978;2023-06-10T08:36:08;5.50;;;4.87;;
17570;SDS011;8903;52.220;20.978;2023-06-10T08:38:35;6.67;;;5.07;;
17570;SDS011;8903;52.220;20.978;2023-06-10T08:41:04;9.30;;;6.33;;
17570;SDS011;8903;52.220;20.978;2023-06-10T08:43:33;8.43;;;5.77;;
17570;SDS011;8903;52.220;20.978;2023-06-10T08:46:03;7.93;;;5.30;;
17570;SDS011;8903;52.220;20.978;2023-06-10T08:48:30;16.20;;;5.60;;
17570;SDS011;8903;52.220;20.978;2023-06-10T08:51:01;8.00;;;4.47;;
17570;SDS011;8903;52.220;20.978;2023-06-10T08:53:31;8.30;;;5.77;;
17570;SDS011;8903;52.220;20.978;2023-06-10T08:56:04;7.17;;;5.40;;
17570;SDS011;8903;52.220;20.978;2023-06-10T08:58:32;8.40;;;5.73;;
17570;SDS011;8903;52.220;20.978;2023-06-10T09:01:05;8.20;;;5.90;;
17570;SDS011;8903;52.220;20.978;2023-06-10T09:03:32;9.33;;;5.40;;
17570;SDS011;8903;52.220;20.978;2023-06-10T09:06:00;5.63;;;5.13;;
17570;SDS011;8903;52.220;20.978;2023-06-10T09:08:28;8.90;;;6.67;;
17570;SDS011;8903;52.220;20.978;2023-06-10T09:10:55;5.30;;;4.70;;
17570;SDS011;8903;52.220;20.978;2023-06-10T09:13:24;6.70;;;5.80;;
17570;SDS011;8903;52.220;20.978;2023-06-10T09:15:53;7.90;;;6.07;;
17570;SDS011;8903;52.220;20.978;2023-06-10T09:18:25;20.53;;;7.93;;
17570;SDS011;8903;52.220;20.978;2023-06-10T09:20:53;8.60;;;5.70;;
17570;SDS011;8903;52.220;20.978;2023-06-10T09:23:23;11.20;;;5.00;;
17570;SDS011;8903;52.220;20.978;2023-06-10T09:25:55;8.40;;;5.87;;
17570;SDS011;8903;52.220;20.978;2023-06-10T09:28:25;8.93;;;5.50;;
17570;SDS011;8903;52.220;20.978;2023-06-10T09:31:01;8.27;;;5.90;;
17570;SDS011;8903;52.220;20.978;2023-06-10T09:33:30;8.63;;;6.27;;
17570;SDS011;8903;52.220;20.978;2023-06-10T09:35:57;5.87;;;5.27;;
17570;SDS011;8903;52.220;20.978;2023-06-10T09:38:31;7.00;;;6.13;;
17570;SDS011;8903;52.220;20.978;2023-06-10T09:40:59;7.50;;;6.07;;
17570;SDS011;8903;52.220;20.978;2023-06-10T09:43:39;8.57;;;5.60;;
17570;SDS011;8903;52.220;20.978;2023-06-10T09:46:13;8.33;;;5.50;;
17570;SDS011;8903;52.220;20.978;2023-06-10T09:48:41;7.53;;;5.07;;
17570;SDS011;8903;52.220;20.978;2023-06-10T09:51:09;5.87;;;4.90;;
17570;SDS011;8903;52.220;20.978;2023-06-10T09:53:36;7.80;;;5.47;;
17570;SDS011;8903;52.220;20.978;2023-06-10T09:56:04;5.83;;;4.80;;
17570;SDS011;8903;52.220;20.978;2023-06-10T09:58:34;8.40;;;5.07;;
17570;SDS011;8903;52.220;20.978;2023-06-10T10:01:07;6.60;;;4.77;;
17570;SDS011;8903;52.220;20.978;2023-06-10T10:03:42;7.00;;;5.17;;
17570;SDS011;8903;52.220;20.978;2023-06-10T10:06:12;5.80;;;4.53;;
17570;SDS011;8903;52.220;20.978;2023-06-10T10:08:39;7.57;;;4.60;;
17570;SDS011;8903;52.220;20.978;2023-06-10T10:11:06;9.77;;;4.57;;
17570;SDS011;8903;52.220;20.978;2023-06-10T10:13:35;5.10;;;3.90;;
17570;SDS011;8903;52.220;20.978;2023-06-10T10:16:04;4.67;;;4.17;;
17570;SDS011;8903;52.220;20.978;2023-06-10T10:18:36;8.70;;;4.50;;
17570;SDS011;8903;52.220;20.978;2023-06-10T10:21:11;5.90;;;3.80;;
17570;SDS011;8903;52.220;20.978;2023-06-10T10:23:39;8.23;;;4.23;;
17570;SDS011;8903;52.220;20.978;2023-06-10T10:26:20;4.60;;;4.20;;
17570;SDS011;8903;52.220;20.978;2023-06-10T10:28:51;13.03;;;4.60;;
17570;SDS011;8903;52.220;20.978;2023-06-10T10:31:25;5.53;;;3.93;;
17570;SDS011;8903;52.220;20.978;2023-06-10T10:33:55;7.53;;;4.00;;
17570;SDS011;8903;52.220;20.978;2023-06-10T10:36:25;5.27;;;4.23;;
17570;SDS011;8903;52.220;20.978;2023-06-10T10:38:53;6.30;;;4.83;;
17570;SDS011;8903;52.220;20.978;2023-06-10T10:41:20;4.90;;;4.10;;
17570;SDS011;8903;52.220;20.978;2023-06-10T10:43:49;5.43;;;4.20;;
17570;SDS011;8903;52.220;20.978;2023-06-10T10:46:17;8.63;;;4.73;;
17570;SDS011;8903;52.220;20.978;2023-06-10T10:48:47;8.83;;;4.20;;
17570;SDS011;8903;52.220;20.978;2023-06-10T10:51:18;8.10;;;4.17;;
17570;SDS011;8903;52.220;20.978;2023-06-10T10:56:38;4.60;;;3.90;;
17570;SDS011;8903;52.220;20.978;2023-06-10T10:59:05;4.47;;;4.03;;
17570;SDS011;8903;52.220;20.978;2023-06-10T11:01:39;8.53;;;4.10;;
17570;SDS011;8903;52.220;20.978;2023-06-10T11:04:09;8.47;;;5.03;;
17570;SDS011;8903;52.220;20.978;2023-06-10T11:06:36;7.60;;;3.87;;
17570;SDS011;8903;52.220;20.978;2023-06-10T11:09:24;5.30;;;4.10;;
17570;SDS011;8903;52.220;20.978;2023-06-10T11:11:53;4.20;;;3.90;;
17570;SDS011;8903;52.220;20.978;2023-06-10T11:14:26;6.23;;;3.73;;
17570;SDS011;8903;52.220;20.978;2023-06-10T11:16:56;6.43;;;4.00;;
17570;SDS011;8903;52.220;20.978;2023-06-10T11:19:34;4.40;;;3.70;;
17570;SDS011;8903;52.220;20.978;2023-06-10T11:22:05;6.50;;;4.60;;
17570;SDS011;8903;52.220;20.978;2023-06-10T11:24:32;5.10;;;4.20;;
17570;SDS011;8903;52.220;20.978;2023-06-10T11:27:16;6.47;;;4.27;;
17570;SDS011;8903;52.220;20.978;2023-06-10T11:30:17;4.53;;;3.90;;
17570;SDS011;8903;52.220;20.978;2023-06-10T11:32:45;6.23;;;3.90;;
17570;SDS011;8903;52.220;20.978;2023-06-10T11:35:19;8.30;;;4.33;;
17570;SDS011;8903;52.220;20.978;2023-06-10T11:37:49;4.10;;;3.80;;
17570;SDS011;8903;52.220;20.978;2023-06-10T11:40:16;4.53;;;3.97;;
17570;SDS011;8903;52.220;20.978;2023-06-10T11:42:43;4.17;;;3.77;;
17570;SDS011;8903;52.220;20.978;2023-06-10T11:45:14;3.87;;;3.57;;
17570;SDS011;8903;52.220;20.978;2023-06-10T11:47:54;6.70;;;4.23;;
17570;SDS011;8903;52.220;20.978;2023-06-10T11:50:28;4.70;;;4.17;;
17570;SDS011;8903;52.220;20.978;2023-06-10T11:52:56;6.07;;;4.47;;
17570;SDS011;8903;52.220;20.978;2023-06-10T11:55:23;5.60;;;4.77;;
17570;SDS011;8903;52.220;20.978;2023-06-10T11:57:51;6.93;;;4.20;;
17570;SDS011;8903;52.220;20.978;2023-06-10T12:00:22;6.57;;;4.50;;
17570;SDS011;8903;52.220;20.978;2023-06-10T12:02:54;5.70;;;3.90;;
17570;SDS011;8903;52.220;20.978;2023-06-10T12:05:23;4.00;;;3.70;;
17570;SDS011;8903;52.220;20.978;2023-06-10T12:07:59;4.60;;;4.00;;
17570;SDS011;8903;52.220;20.978;2023-06-10T12:10:39;5.20;;;4.10;;
17570;SDS011;8903;52.220;20.978;2023-06-10T12:13:07;4.77;;;4.27;;
17570;SDS011;8903;52.220;20.978;2023-06-10T12:15:34;4.53;;;4.13;;
17570;SDS011;8903;52.220;20.978;2023-06-10T12:18:01;4.20;;;3.80;;
17570;SDS011;8903;52.220;20.978;2023-06-10T12:20:29;5.30;;;4.87;;
17570;SDS011;8903;52.220;20.978;2023-06-10T12:23:00;5.33;;;4.80;;
17570;SDS011;8903;52.220;20.978;2023-06-10T12:25:34;5.47;;;4.90;;
17570;SDS011;8903;52.220;20.978;2023-06-10T12:28:03;15.93;;;5.40;;
17570;SDS011;8903;52.220;20.978;2023-06-10T12:30:31;5.23;;;4.80;;
17570;SDS011;8903;52.220;20.978;2023-06-10T12:32:59;5.97;;;5.00;;
17570;SDS011;8903;52.220;20.978;2023-06-10T12:35:26;5.63;;;5.03;;
17570;SDS011;8903;52.220;20.978;2023-06-10T12:37:54;6.00;;;5.03;;
17570;SDS011;8903;52.220;20.978;2023-06-10T12:40:26;8.93;;;5.47;;
17570;SDS011;8903;52.220;20.978;2023-06-10T12:42:54;6.73;;;5.67;;
17570;SDS011;8903;52.220;20.978;2023-06-10T12:45:28;6.33;;;5.80;;
17570;SDS011;8903;52.220;20.978;2023-06-10T12:48:05;5.73;;;5.13;;
17570;SDS011;8903;52.220;20.978;2023-06-10T12:50:34;6.73;;;6.13;;
17570;SDS011;8903;52.220;20.978;2023-06-10T12:53:03;10.17;;;5.80;;
17570;SDS011;8903;52.220;20.978;2023-06-10T12:55:32;7.67;;;5.63;;
17570;SDS011;8903;52.220;20.978;2023-06-10T12:57:59;8.80;;;5.33;;
17570;SDS011;8903;52.220;20.978;2023-06-10T13:00:27;5.03;;;4.63;;
17570;SDS011;8903;52.220;20.978;2023-06-10T13:02:55;8.00;;;5.40;;
17570;SDS011;8903;52.220;20.978;2023-06-10T13:05:22;6.20;;;5.60;;
17570;SDS011;8903;52.220;20.978;2023-06-10T13:07:49;6.03;;;5.40;;
17570;SDS011;8903;52.220;20.978;2023-06-10T13:10:17;7.00;;;6.03;;
17570;SDS011;8903;52.220;20.978;2023-06-10T13:12:46;7.00;;;5.20;;
17570;SDS011;8903;52.220;20.978;2023-06-10T13:15:13;11.80;;;6.37;;
17570;SDS011;8903;52.220;20.978;2023-06-10T13:17:41;11.87;;;6.67;;
17570;SDS011;8903;52.220;20.978;2023-06-10T13:20:08;6.33;;;5.83;;
17570;SDS011;8903;52.220;20.978;2023-06-10T13:22:36;8.33;;;6.00;;
17570;SDS011;8903;52.220;20.978;2023-06-10T13:25:03;6.37;;;5.10;;
17570;SDS011;8903;52.220;20.978;2023-06-10T13:27:32;7.70;;;6.00;;
17570;SDS011;8903;52.220;20.978;2023-06-10T13:30:00;12.80;;;5.90;;
17570;SDS011;8903;52.220;20.978;2023-06-10T13:32:27;8.63;;;6.13;;
17570;SDS011;8903;52.220;20.978;2023-06-10T13:34:54;7.00;;;5.57;;
17570;SDS011;8903;52.220;20.978;2023-06-10T13:37:22;5.83;;;5.33;;
17570;SDS011;8903;52.220;20.978;2023-06-10T13:39:49;6.10;;;5.00;;
17570;SDS011;8903;52.220;20.978;2023-06-10T13:42:17;7.13;;;4.90;;
17570;SDS011;8903;52.220;20.978;2023-06-10T13:44:44;6.93;;;5.47;;
17570;SDS011;8903;52.220;20.978;2023-06-10T13:47:14;6.63;;;5.97;;
17570;SDS011;8903;52.220;20.978;2023-06-10T13:49:41;10.87;;;6.77;;
17570;SDS011;8903;52.220;20.978;2023-06-10T13:52:08;7.30;;;5.70;;
17570;SDS011;8903;52.220;20.978;2023-06-10T13:54:35;5.83;;;5.43;;
17570;SDS011;8903;52.220;20.978;2023-06-10T13:57:02;6.53;;;5.30;;
17570;SDS011;8903;52.220;20.978;2023-06-10T13:59:30;7.53;;;5.30;;
17570;SDS011;8903;52.220;20.978;2023-06-10T14:01:57;5.63;;;4.90;;
17570;SDS011;8903;52.220;20.978;2023-06-10T14:04:25;6.10;;;5.57;;
17570;SDS011;8903;52.220;20.978;2023-06-10T14:06:52;5.53;;;5.00;;
17570;SDS011;8903;52.220;20.978;2023-06-10T14:09:19;6.30;;;5.70;;
17570;SDS011;8903;52.220;20.978;2023-06-10T14:11:47;6.50;;;5.50;;
17570;SDS011;8903;52.220;20.978;2023-06-10T14:14:14;6.60;;;6.00;;
17570;SDS011;8903;52.220;20.978;2023-06-10T14:16:41;5.30;;;4.80;;
17570;SDS011;8903;52.220;20.978;2023-06-10T14:19:08;7.63;;;5.27;;
17570;SDS011;8903;52.220;20.978;2023-06-10T14:21:36;6.03;;;5.53;;
17570;SDS011;8903;52.220;20.978;2023-06-10T14:24:03;5.90;;;4.77;;
17570;SDS011;8903;52.220;20.978;2023-06-10T14:26:30;10.00;;;5.80;;
17570;SDS011;8903;52.220;20.978;2023-06-10T14:28:58;6.80;;;5.90;;
17570;SDS011;8903;52.220;20.978;2023-06-10T14:31:25;11.03;;;5.40;;
17570;SDS011;8903;52.220;20.978;2023-06-10T14:33:51;6.17;;;5.17;;
17570;SDS011;8903;52.220;20.978;2023-06-10T14:36:19;6.03;;;5.43;;
17570;SDS011;8903;52.220;20.978;2023-06-10T14:38:47;6.60;;;5.77;;
17570;SDS011;8903;52.220;20.978;2023-06-10T14:41:14;6.00;;;5.40;;
17570;SDS011;8903;52.220;20.978;2023-06-10T14:43:41;8.63;;;5.27;;
17570;SDS011;8903;52.220;20.978;2023-06-10T14:46:08;6.20;;;5.53;;
17570;SDS011;8903;52.220;20.978;2023-06-10T14:48:35;6.70;;;5.37;;
17570;SDS011;8903;52.220;20.978;2023-06-10T14:51:02;5.97;;;5.47;;
17570;SDS011;8903;52.220;20.978;2023-06-10T14:53:30;8.73;;;5.90;;
17570;SDS011;8903;52.220;20.978;2023-06-10T14:55:59;6.73;;;5.37;;
17570;SDS011;8903;52.220;20.978;2023-06-10T14:58:26;12.43;;;9.90;;